Time;durP1;ratioP1;P1;durP2;ratioP2;P2;SDS_P1;SDS_P2;PMS_P1;PMS_P2;Temp;Humidity;BMP_temperature;BMP_pressure;BME280_temperature;BME280_humidity;BME280_pressure;Samples;Min_cycle;Max_cycle;Signal;HPM_P1;HPM_P2
2022/01/16 00:04:09;;;;;;;113.12;59.03;;;;;;;-4.47;88.23;101661.63;1427129;89;21708;-77
2022/01/16 00:06:40;;;;;;;112.28;59.18;;;;;;;-4.51;88.09;101653.08;1422589;89;21354;-77
2022/01/16 00:09:07;;;;;;;116.25;62.53;;;;;;;-4.54;87.94;101648.80;1428543;90;22280;-76
2022/01/16 00:11:37;;;;;;;125.47;67.45;;;;;;;-4.59;87.91;101638.97;1439253;89;21481;-77
2022/01/16 00:14:06;;;;;;;118.75;58.92;;;;;;;-4.60;88.20;101638.56;1429235;90;22156;-76
2022/01/16 00:16:33;;;;;;;116.60;61.05;;;;;;;-4.60;88.45;101620.92;1474592;89;21483;-77
2022/01/16 00:19:01;;;;;;;116.53;60.25;;;;;;;-4.61;88.36;101613.58;1465436;89;21533;-77
2022/01/16 00:21:32;;;;;;;114.47;62.05;;;;;;;-4.64;88.26;101630.86;1436495;89;21417;-77
2022/01/16 00:24:00;;;;;;;105.67;56.45;;;;;;;-4.64;88.51;101629.13;1430740;89;21472;-76
2022/01/16 00:26:27;;;;;;;104.92;56.50;;;;;;;-4.64;88.20;101620.53;1412171;89;21302;-77
2022/01/16 00:28:55;;;;;;;104.70;55.70;;;;;;;-4.77;87.59;101610.38;1443003;89;21549;-77
2022/01/16 00:31:23;;;;;;;108.78;57.27;;;;;;;-4.80;88.03;101639.27;1420659;90;22492;-77
2022/01/16 00:33:51;;;;;;;112.22;58.25;;;;;;;-4.78;88.28;101662.04;1385583;91;21353;-80
2022/01/16 00:36:21;;;;;;;114.95;58.08;;;;;;;-4.79;88.15;101661.63;1369771;91;21531;-80
2022/01/16 00:38:49;;;;;;;112.37;58.50;;;;;;;-4.77;88.23;101674.10;1364803;92;22307;-80
2022/01/16 00:41:19;;;;;;;112.08;60.60;;;;;;;-4.77;88.10;101685.28;1375120;92;21454;-79
2022/01/16 00:43:49;;;;;;;116.53;60.28;;;;;;;-4.82;87.87;101650.91;1414088;92;23071;-81
2022/01/16 00:46:18;;;;;;;119.22;60.60;;;;;;;-4.89;87.89;101626.45;1378917;92;21415;-78
2022/01/16 00:48:46;;;;;;;125.30;63.83;;;;;;;-4.92;88.37;101649.33;1407605;91;21347;-79
2022/01/16 00:51:15;;;;;;;118.80;61.20;;;;;;;-4.88;88.88;101660.47;1388315;90;21409;-78
2022/01/16 00:53:43;;;;;;;111.50;59.45;;;;;;;-4.84;89.25;101638.88;1395630;90;21310;-79
2022/01/16 00:56:12;;;;;;;97.57;50.92;;;;;;;-4.85;88.82;101645.78;1394472;90;21509;-79
2022/01/16 00:58:40;;;;;;;116.37;58.17;;;;;;;-4.84;88.58;101640.17;1440179;91;22278;-78
2022/01/16 01:01:09;;;;;;;101.22;55.12;;;;;;;-4.85;88.54;101632.02;1408925;90;21355;-79
2022/01/16 01:03:37;;;;;;;95.17;53.63;;;;;;;-4.85;88.58;101643.64;1420914;91;21415;-79
2022/01/16 01:06:05;;;;;;;105.85;53.85;;;;;;;-4.87;88.17;101649.25;1430849;90;21466;-79
2022/01/16 01:08:32;;;;;;;116.15;58.63;;;;;;;-4.96;87.93;101668.30;1401660;92;21377;-78
2022/01/16 01:11:03;;;;;;;105.10;53.78;;;;;;;-4.97;88.38;101632.19;1441157;92;21435;-78
2022/01/16 01:16:04;;;;;;;96.02;51.10;;;;;;;-4.93;88.74;101660.95;1372898;93;21310;-77
2022/01/16 01:18:33;;;;;;;105.83;55.12;;;;;;;-4.96;88.65;101610.64;1428891;92;21324;-77
2022/01/16 01:21:05;;;;;;;104.67;56.88;;;;;;;-4.95;88.62;101636.43;1375340;92;21436;-78
2022/01/16 01:23:31;;;;;;;104.15;53.38;;;;;;;-5.01;88.25;101664.91;1379868;92;22301;-78
2022/01/16 01:25:58;;;;;;;99.95;50.98;;;;;;;-5.02;88.41;101568.53;1377495;92;21307;-78
2022/01/16 01:28:25;;;;;;;96.22;50.03;;;;;;;-5.05;88.30;101546.63;1388384;92;22495;-78
2022/01/16 01:30:52;;;;;;;104.67;51.13;;;;;;;-5.06;88.09;101573.33;1428644;91;21431;-78
2022/01/16 01:33:20;;;;;;;85.42;46.80;;;;;;;-5.07;88.36;101554.83;1437306;90;22240;-78
2022/01/16 01:35:48;;;;;;;98.80;50.00;;;;;;;-5.05;88.35;101539.33;1434342;89;21538;-78
2022/01/16 01:38:20;;;;;;;103.67;54.27;;;;;;;-5.06;88.28;101564.30;1480497;89;21516;-77
2022/01/16 01:40:48;;;;;;;75.90;43.95;;;;;;;-5.04;88.43;101588.78;1430830;89;21376;-77
2022/01/16 01:51:02;;;;;;;83.60;44.18;;;;;;;-5.05;87.96;101584.51;1420770;89;21524;-77
2022/01/16 01:51:50;;;;;;;80.17;42.75;;;;;;;-5.10;88.04;101590.16;1426438;89;21457;-77
2022/01/16 01:54:17;;;;;;;80.53;44.27;;;;;;;-5.13;88.15;101570.84;1409657;89;22721;-77
2022/01/16 01:56:46;;;;;;;81.32;44.93;;;;;;;-5.15;87.87;101575.16;1393324;90;21391;-77
2022/01/16 01:59:13;;;;;;;84.83;45.80;;;;;;;-5.15;88.02;101555.80;1399180;89;21353;-77
2022/01/16 02:01:41;;;;;;;84.40;44.50;;;;;;;-5.14;88.31;101548.05;1396142;89;21421;-77
2022/01/16 02:04:08;;;;;;;87.80;46.28;;;;;;;-5.19;87.87;101555.00;1382457;89;21502;-77
2022/01/16 02:06:35;;;;;;;84.35;42.33;;;;;;;-5.18;88.38;101556.69;1355816;90;22727;-77
2022/01/16 02:09:06;;;;;;;85.87;46.18;;;;;;;-5.17;88.50;101570.03;1391474;88;21503;-80
2022/01/16 02:11:34;;;;;;;90.10;45.50;;;;;;;-5.20;88.48;101584.27;1369765;89;21442;-79
2022/01/16 02:14:22;;;;;;;87.72;47.27;;;;;;;-5.17;88.55;101580.80;1362808;89;22374;-78
2022/01/16 02:28:22;;;;;;;86.40;44.27;;;;;;;-5.27;89.62;101630.37;1390901;89;20295;-79
2022/01/16 02:31:16;;;;;;;100.30;50.90;;;;;;;-5.20;89.93;101622.98;1383976;89;23275;-79
2022/01/16 02:36:29;;;;;;;92.70;47.15;;;;;;;-5.14;89.95;101622.06;1375729;89;21561;-77
2022/01/16 02:39:08;;;;;;;84.28;44.20;;;;;;;-5.07;89.77;101627.55;1373080;89;21362;-77
2022/01/16 02:41:35;;;;;;;79.47;43.95;;;;;;;-4.97;89.93;101636.91;1372860;90;21377;-78
2022/01/16 02:44:12;;;;;;;83.07;41.75;;;;;;;-4.94;89.45;101643.77;1388570;89;21490;-77
2022/01/16 02:48:59;;;;;;;78.35;41.35;;;;;;;-4.99;88.75;101645.95;1364525;90;21427;-77
2022/01/16 02:51:28;;;;;;;82.25;41.20;;;;;;;-5.01;88.74;101639.94;1368566;88;22337;-77
2022/01/16 02:53:56;;;;;;;81.00;43.13;;;;;;;-5.03;88.79;101633.96;1392652;88;21580;-77
2022/01/16 02:56:23;;;;;;;75.85;39.00;;;;;;;-4.97;89.01;101628.31;1398601;88;21443;-77
2022/01/16 02:58:51;;;;;;;77.55;40.85;;;;;;;-4.91;89.16;101635.98;1335194;91;21481;-77
2022/01/16 03:01:19;;;;;;;77.37;40.17;;;;;;;-4.90;88.77;101644.13;1362103;89;21463;-77
2022/01/16 03:03:46;;;;;;;76.05;39.33;;;;;;;-4.90;88.54;101629.92;1347419;89;22261;-77
2022/01/16 03:06:14;;;;;;;86.20;43.20;;;;;;;-4.93;88.26;101627.39;1363962;90;21376;-78
2022/01/16 03:08:42;;;;;;;80.32;42.48;;;;;;;-4.95;88.22;101633.00;1343663;90;21317;-78
2022/01/16 03:11:22;;;;;;;85.00;44.00;;;;;;;-5.02;88.30;101634.81;1373910;89;21564;-77
2022/01/16 03:13:49;;;;;;;85.05;44.55;;;;;;;-5.08;87.92;101639.61;1372520;89;21479;-77
2022/01/16 03:16:20;;;;;;;80.87;42.60;;;;;;;-5.10;88.45;101632.75;1368694;89;21379;-78
2022/01/16 03:24:26;;;;;;;83.15;45.80;;;;;;;-5.36;87.94;101634.34;1365992;89;21479;-78
2022/01/16 03:26:57;;;;;;;91.25;44.45;;;;;;;-5.34;88.50;101640.36;1399398;89;22271;-78
2022/01/16 03:29:25;;;;;;;;;;;;;;;-5.31;89.38;101636.45;1400920;89;21515;-82
2022/01/16 03:31:54;;;;;;;79.37;40.25;;;;;;;-5.34;89.25;101630.03;1426031;89;20428;-82
2022/01/16 03:34:22;;;;;;;81.28;40.85;;;;;;;-5.39;89.14;101624.06;1412136;90;22870;-82
2022/01/16 03:36:49;;;;;;;83.22;44.25;;;;;;;-5.45;89.19;101623.70;1402334;91;23541;-82
2022/01/16 03:39:17;;;;;;;79.30;40.48;;;;;;;-5.40;89.41;101622.37;1377766;91;21731;-83
2022/01/16 03:41:45;;;;;;;80.15;40.40;;;;;;;-5.34;89.53;101620.56;1421404;89;21564;-83
2022/01/16 03:44:13;;;;;;;75.15;39.10;;;;;;;-5.35;89.43;101619.27;1412886;89;22418;-83
2022/01/16 03:46:43;;;;;;;84.40;44.15;;;;;;;-5.40;89.11;101613.34;1399829;90;22137;-84
2022/01/16 03:49:16;;;;;;;81.80;45.28;;;;;;;-5.40;89.00;101617.20;1378360;93;21494;-85
2022/01/16 03:51:46;;;;;;;80.85;42.25;;;;;;;-5.40;88.84;101612.05;1384413;91;22376;-84
2022/01/16 03:54:17;;;;;;;83.05;44.98;;;;;;;-5.42;89.06;101609.91;1348914;91;21546;-84
2022/01/16 03:56:45;;;;;;;82.37;44.70;;;;;;;-5.45;89.42;101611.64;1358623;90;21369;-84
2022/01/16 03:59:13;;;;;;;77.17;39.35;;;;;;;-5.42;89.24;101612.48;1365697;91;22191;-84
2022/01/16 04:01:41;;;;;;;69.70;36.03;;;;;;;-5.45;89.11;101608.22;1377948;89;21494;-83
2022/01/16 04:04:08;;;;;;;77.40;39.83;;;;;;;-5.48;88.73;101603.09;1367670;89;21346;-84
2022/01/16 04:06:36;;;;;;;72.72;37.20;;;;;;;-5.48;89.02;101603.94;1405508;89;21470;-83
2022/01/16 04:09:04;;;;;;;75.80;39.78;;;;;;;-5.47;88.93;101600.51;1423103;90;21449;-83
2022/01/16 04:11:31;;;;;;;67.90;35.15;;;;;;;-5.49;88.86;101598.38;1403907;91;22546;-84
2022/01/16 04:14:14;;;;;;;72.65;36.63;;;;;;;-5.47;88.96;101599.22;1398791;91;21470;-84
2022/01/16 04:16:38;;;;;;;78.50;40.17;;;;;;;-5.43;88.94;101609.06;1382657;92;22367;-84
2022/01/16 04:19:05;;;;;;;81.22;39.18;;;;;;;-5.42;89.05;101610.76;1402119;91;21424;-84
2022/01/16 04:21:32;;;;;;;87.05;41.77;;;;;;;-5.42;88.81;101612.05;1403723;89;22614;-84
2022/01/16 04:24:00;;;;;;;90.95;44.73;;;;;;;-5.42;88.63;101615.07;1417754;90;21476;-84
2022/01/16 04:26:28;;;;;;;91.05;44.55;;;;;;;-5.47;88.98;101617.28;1389236;92;21670;-84
2022/01/16 04:28:56;;;;;;;97.78;49.45;;;;;;;-5.44;89.08;101608.62;1394870;92;21499;-83
2022/01/16 04:31:23;;;;;;;94.22;46.65;;;;;;;-5.37;89.27;101614.14;1414111;90;22753;-86
2022/01/16 04:33:51;;;;;;;97.33;47.27;;;;;;;-5.32;89.18;101615.37;1396237;91;21620;-86
2022/01/16 04:36:18;;;;;;;89.87;45.43;;;;;;;-5.33;88.64;101616.25;1418939;89;21402;-85
2022/01/16 04:38:48;;;;;;;84.10;41.23;;;;;;;-5.26;88.95;101610.16;1387453;90;21659;-85
2022/01/16 04:44:04;;;;;;;90.53;46.05;;;;;;;-5.22;88.28;101611.82;1401882;91;21594;-85
2022/01/16 04:46:33;;;;;;;95.42;46.80;;;;;;;-5.19;88.23;101619.52;1416010;90;23711;-85
2022/01/16 04:49:03;;;;;;;91.45;43.42;;;;;;;-5.23;87.58;101614.84;1416749;89;22406;-85
2022/01/16 04:51:32;;;;;;;102.27;48.13;;;;;;;-5.25;87.68;101610.13;1419502;90;22664;-83
2022/01/16 04:54:00;;;;;;;84.42;41.73;;;;;;;-5.22;87.72;101606.66;1421307;89;21450;-85
2022/01/16 04:56:27;;;;;;;86.92;44.88;;;;;;;-5.28;87.21;101608.03;1390773;91;21747;-85
2022/01/16 04:58:55;;;;;;;83.42;42.55;;;;;;;-5.29;87.22;101602.45;1407219;89;21534;-83
2022/01/16 05:01:23;;;;;;;93.20;44.40;;;;;;;-5.32;87.05;101601.17;1416221;91;21594;-83
2022/01/16 05:03:51;;;;;;;80.15;40.70;;;;;;;-5.32;87.09;101607.63;1401097;90;21432;-83
2022/01/16 05:06:18;;;;;;;90.87;44.65;;;;;;;-5.36;86.91;101611.97;1412945;91;21643;-83
2022/01/16 05:08:46;;;;;;;86.17;43.90;;;;;;;-5.38;86.98;101612.86;1407544;91;21447;-83
2022/01/16 05:11:16;;;;;;;94.35;46.92;;;;;;;-5.37;87.09;101612.01;1406423;90;21602;-83
2022/01/16 05:18:56;;;;;;;90.60;42.65;;;;;;;-5.36;86.88;101603.39;1417671;90;21523;-83
2022/01/16 05:21:33;;;;;;;96.37;43.85;;;;;;;-5.40;86.63;101599.99;1424464;89;22682;-84
2022/01/16 05:24:03;;;;;;;93.07;45.95;;;;;;;-5.39;86.78;101606.00;1429604;88;21508;-84
2022/01/16 05:26:31;;;;;;;87.60;45.15;;;;;;;-5.42;86.62;101603.45;1421688;90;21508;-84
2022/01/16 05:28:58;;;;;;;80.45;41.28;;;;;;;-5.47;86.56;101599.63;1411484;89;22374;-84
2022/01/16 05:31:25;;;;;;;79.65;40.90;;;;;;;-5.48;86.70;101594.06;1420785;90;21607;-81
2022/01/16 05:33:52;;;;;;;87.20;40.15;;;;;;;-5.51;86.39;101592.36;1410278;91;21465;-81
2022/01/16 05:36:21;;;;;;;84.17;39.05;;;;;;;-5.55;86.37;101591.99;1419079;91;21666;-81
2022/01/16 05:38:54;;;;;;;76.72;39.67;;;;;;;-5.55;86.67;101601.02;1427907;89;21442;-81
2022/01/16 05:41:22;;;;;;;75.83;37.98;;;;;;;-5.57;86.70;101605.34;1429295;89;21575;-81
2022/01/16 05:43:49;;;;;;;76.45;39.98;;;;;;;-5.53;86.79;101603.13;1421360;89;21449;-81
2022/01/16 05:46:17;;;;;;;91.78;43.83;;;;;;;-5.49;86.84;101611.27;1419475;89;21590;-81
2022/01/16 05:48:44;;;;;;;81.60;41.95;;;;;;;-5.48;86.81;101610.83;1411855;89;21459;-82
2022/01/16 05:51:11;;;;;;;84.55;43.87;;;;;;;-5.46;86.62;101615.11;1421856;90;22805;-83
2022/01/16 05:53:39;;;;;;;90.55;43.23;;;;;;;-5.54;86.32;101610.46;1396646;91;21391;-82
2022/01/16 05:56:06;;;;;;;88.75;40.78;;;;;;;-5.63;86.31;101605.41;1419407;90;22613;-84
2022/01/16 05:58:33;;;;;;;86.37;43.63;;;;;;;-5.63;86.31;101607.98;1406201;91;21435;-82
2022/01/16 06:01:01;;;;;;;83.50;39.50;;;;;;;-5.60;86.72;101612.26;1392219;91;21556;-82
2022/01/16 06:03:28;;;;;;;84.13;41.77;;;;;;;-5.62;86.72;101616.13;1410441;91;22577;-82
2022/01/16 06:05:55;;;;;;;87.37;43.05;;;;;;;-5.60;86.99;101607.95;1391613;92;21432;-82
2022/01/16 06:08:22;;;;;;;87.90;41.68;;;;;;;-5.57;86.76;101608.36;1409028;90;21520;-82
2022/01/16 06:10:50;;;;;;;97.45;46.35;;;;;;;-5.58;86.97;101610.50;1404827;91;21423;-82
2022/01/16 06:13:17;;;;;;;83.30;42.98;;;;;;;-5.56;86.82;101622.95;1403006;90;21386;-82
2022/01/16 06:15:46;;;;;;;106.40;48.17;;;;;;;-5.58;86.67;101628.14;1409285;92;21585;-82
2022/01/16 06:18:14;;;;;;;99.25;47.78;;;;;;;-5.58;86.86;101632.02;1386656;92;21557;-82
2022/01/16 06:20:42;;;;;;;96.08;46.92;;;;;;;-5.55;87.00;101635.84;1388882;92;21446;-80
2022/01/16 06:23:09;;;;;;;104.05;53.40;;;;;;;-5.66;86.59;101635.10;1411719;90;21409;-80
2022/01/16 06:25:36;;;;;;;99.00;50.25;;;;;;;-5.63;86.71;101629.91;1411326;90;21849;-80
2022/01/16 06:28:04;;;;;;;101.38;49.83;;;;;;;-5.55;87.00;101629.41;1411639;90;21423;-79
2022/01/16 06:30:31;;;;;;;93.78;46.88;;;;;;;-5.51;87.05;101631.06;1415093;91;21531;-80
2022/01/16 06:32:58;;;;;;;86.80;42.70;;;;;;;-5.52;86.95;101627.23;1407302;91;21413;-80
2022/01/16 06:35:25;;;;;;;94.03;44.93;;;;;;;-5.45;87.11;101628.85;1401904;90;21500;-80
2022/01/16 06:37:53;;;;;;;97.02;43.75;;;;;;;-5.44;86.67;101633.13;1407484;91;23671;-81
2022/01/16 06:40:20;;;;;;;83.87;39.88;;;;;;;-5.41;86.79;101633.09;1402666;90;21575;-82
2022/01/16 06:42:47;;;;;;;78.90;38.50;;;;;;;-5.45;86.53;101628.41;1396542;91;21422;-83
2022/01/16 06:45:14;;;;;;;82.10;39.50;;;;;;;-5.39;87.12;101634.38;1409747;91;21515;-86
2022/01/16 06:47:42;;;;;;;73.02;38.08;;;;;;;-5.36;87.16;101643.38;1408321;91;22476;-88
2022/01/16 06:50:10;;;;;;;77.90;39.70;;;;;;;-5.31;87.36;101642.46;1395940;91;21546;-86
2022/01/16 06:52:38;;;;;;;76.92;38.08;;;;;;;-5.27;87.44;101636.82;1403812;91;22471;-85
2022/01/16 06:55:06;;;;;;;77.75;38.28;;;;;;;-5.27;87.33;101635.53;1426053;89;21501;-86
2022/01/16 06:57:34;;;;;;;72.47;37.25;;;;;;;-5.25;87.46;101640.25;1422562;89;21486;-84
2022/01/16 07:00:04;;;;;;;65.80;34.85;;;;;;;-5.18;87.64;101645.74;1419275;89;22597;-83
2022/01/16 07:02:31;;;;;;;70.47;36.73;;;;;;;-5.12;87.78;101646.99;1407060;90;22219;-83
2022/01/16 07:04:58;;;;;;;78.97;36.58;;;;;;;-5.14;87.61;101652.59;1388960;91;21613;-82
2022/01/16 07:07:26;;;;;;;60.67;30.48;;;;;;;-5.11;87.90;101657.72;1414927;89;21450;-81
2022/01/16 07:09:53;;;;;;;68.12;34.85;;;;;;;-5.05;87.97;101653.77;1400196;92;23615;-82
2022/01/16 07:12:20;;;;;;;64.00;31.52;;;;;;;-5.02;87.74;101649.86;1415664;89;21435;-82
2022/01/16 07:14:48;;;;;;;68.40;33.85;;;;;;;-4.95;87.78;101651.07;1404302;90;22366;-82
2022/01/16 07:17:15;;;;;;;79.87;37.23;;;;;;;-4.96;87.32;101655.39;1415312;89;21501;-82
2022/01/16 07:19:42;;;;;;;76.60;34.55;;;;;;;-4.91;87.70;101651.03;1431047;89;22395;-82
2022/01/16 07:22:09;;;;;;;77.55;39.70;;;;;;;-4.89;87.33;101657.45;1415394;89;21521;-81
2022/01/16 07:24:36;;;;;;;66.60;33.95;;;;;;;-4.83;87.43;101654.37;1426091;89;21463;-81
2022/01/16 07:27:04;;;;;;;70.83;34.27;;;;;;;-4.78;87.32;101655.58;1419060;89;22382;-81
2022/01/16 07:29:31;;;;;;;68.17;32.38;;;;;;;-4.71;87.53;101660.25;1418365;89;21669;-81
2022/01/16 07:31:59;;;;;;;69.75;34.53;;;;;;;-4.67;87.39;101655.00;1406549;91;22382;-81
2022/01/16 07:34:26;;;;;;;75.05;34.92;;;;;;;-4.65;87.15;101659.72;1416401;89;21625;-81
2022/01/16 07:36:54;;;;;;;72.67;33.55;;;;;;;-4.63;87.39;101672.19;1424483;90;21561;-81
2022/01/16 07:39:21;;;;;;;75.35;34.00;;;;;;;-4.60;87.39;101674.73;1402226;90;22515;-82
2022/01/16 07:41:48;;;;;;;80.72;35.15;;;;;;;-4.57;87.35;101670.81;1412477;90;21398;-81
2022/01/16 07:44:15;;;;;;;85.62;39.90;;;;;;;-4.54;87.44;101672.51;1417508;91;21495;-81
2022/01/16 07:46:43;;;;;;;80.12;36.50;;;;;;;-4.46;87.60;101669.38;1413729;91;21471;-82
2022/01/16 07:49:10;;;;;;;64.97;32.90;;;;;;;-4.39;87.56;101667.11;1407830;90;21575;-82
2022/01/16 07:51:37;;;;;;;69.92;32.23;;;;;;;-4.38;87.15;101664.08;1401904;90;21626;-82
2022/01/16 07:54:04;;;;;;;67.65;32.65;;;;;;;-4.34;87.24;101670.48;1407219;89;21967;-82
2022/01/16 07:56:32;;;;;;;60.33;28.52;;;;;;;-4.25;87.61;101673.38;1408011;91;21450;-87
2022/01/16 07:58:59;;;;;;;61.70;31.48;;;;;;;-4.21;87.21;101673.73;1378526;93;22504;-86
2022/01/16 08:01:26;;;;;;;62.08;30.30;;;;;;;-4.18;87.18;101677.56;1409142;91;21481;-86
2022/01/16 08:03:54;;;;;;;71.97;33.78;;;;;;;-4.13;87.15;101678.80;1370139;93;21475;-83
2022/01/16 08:06:21;;;;;;;63.30;29.80;;;;;;;-4.07;87.20;101677.84;1377897;92;21516;-85
2022/01/16 08:08:48;;;;;;;69.17;34.50;;;;;;;-4.00;87.22;101682.91;1374911;92;21539;-82
2022/01/16 08:11:16;;;;;;;65.70;32.13;;;;;;;-3.98;86.88;101675.95;1376374;93;22621;-83
2022/01/16 08:13:43;;;;;;;70.83;34.18;;;;;;;-3.94;86.81;101683.22;1371302;92;21408;-83
2022/01/16 08:16:10;;;;;;;70.65;33.55;;;;;;;-3.94;86.61;101678.93;1400329;91;22404;-82
2022/01/16 08:18:38;;;;;;;72.97;35.38;;;;;;;-3.94;86.57;101680.63;1409638;91;21673;-83
2022/01/16 08:21:05;;;;;;;73.25;34.25;;;;;;;-3.90;86.56;101675.84;1414877;91;21562;-83
2022/01/16 08:23:33;;;;;;;70.75;35.50;;;;;;;-3.82;86.68;101670.11;1405498;91;21546;-82
2022/01/16 08:26:01;;;;;;;70.10;34.27;;;;;;;-3.78;86.51;101660.11;1380137;92;22388;-83
2022/01/16 08:28:29;;;;;;;71.28;33.63;;;;;;;-3.75;86.47;101652.30;1406160;91;21627;-82
2022/01/16 08:30:56;;;;;;;79.17;36.68;;;;;;;-3.72;86.48;101661.30;1405757;91;23684;-84
2022/01/16 08:33:23;;;;;;;79.00;34.60;;;;;;;-3.64;86.74;101668.94;1410420;89;21405;-84
2022/01/16 08:35:51;;;;;;;79.85;37.33;;;;;;;-3.56;86.80;101670.11;1420441;89;21539;-82
2022/01/16 08:38:18;;;;;;;82.20;37.50;;;;;;;-3.50;86.50;101672.58;1384224;91;22522;-86
2022/01/16 08:40:45;;;;;;;78.02;34.40;;;;;;;-3.47;86.28;101675.11;1419669;89;21450;-85
2022/01/16 08:43:13;;;;;;;66.80;31.70;;;;;;;-3.49;85.99;101665.22;1421284;89;21599;-84
2022/01/16 08:45:41;;;;;;;68.65;34.23;;;;;;;-3.46;85.91;101660.83;1431960;89;22441;-83
2022/01/16 08:48:09;;;;;;;69.85;33.25;;;;;;;-3.39;86.25;101646.06;1425494;89;21545;-83
2022/01/16 08:50:38;;;;;;;71.22;33.05;;;;;;;-3.34;85.87;101649.39;1424821;89;21427;-83
2022/01/16 08:53:06;;;;;;;81.40;36.93;;;;;;;-3.28;85.72;101645.42;1400008;89;21567;-81
2022/01/16 08:55:35;;;;;;;89.15;42.65;;;;;;;-3.30;85.58;101647.17;1427223;89;21501;-81
2022/01/16 08:58:03;;;;;;;73.12;37.40;;;;;;;-3.24;85.83;101639.28;1412727;89;22639;-81
2022/01/16 09:00:32;;;;;;;77.40;37.28;;;;;;;-3.20;85.77;101640.91;1377438;91;21332;-81
2022/01/16 09:02:59;;;;;;;85.55;40.65;;;;;;;-3.13;85.78;101635.64;1377426;91;21517;-80
2022/01/16 09:05:27;;;;;;;84.55;38.83;;;;;;;-3.04;85.84;101634.16;1408551;90;22459;-80
2022/01/16 09:07:55;;;;;;;79.40;38.10;;;;;;;-2.95;85.78;101624.89;1404481;91;21511;-80
2022/01/16 09:10:45;;;;;;;74.42;35.38;;;;;;;-2.91;85.00;101626.52;1413352;90;22286;-80
2022/01/16 09:13:18;;;;;;;68.28;32.98;;;;;;;-2.84;85.31;101624.22;1404492;89;21338;-80
2022/01/16 09:15:44;;;;;;;79.40;41.33;;;;;;;-2.84;84.44;101617.75;1407052;90;21649;-80
2022/01/16 09:18:12;;;;;;;75.08;35.20;;;;;;;-2.84;84.24;101618.20;1446815;90;21451;-84
2022/01/16 09:20:39;;;;;;;69.80;34.38;;;;;;;-2.86;84.03;101619.51;1436923;89;21452;-84
2022/01/16 09:23:08;;;;;;;70.70;33.13;;;;;;;-2.86;83.94;101607.84;1411647;92;21377;-84
2022/01/16 09:25:36;;;;;;;68.45;33.30;;;;;;;-2.81;84.29;101601.28;1383086;93;21481;-84
2022/01/16 09:28:05;;;;;;;71.40;33.13;;;;;;;-2.79;84.01;101592.59;1399651;91;22000;-84
2022/01/16 09:30:33;;;;;;;73.52;34.30;;;;;;;-2.79;84.12;101588.70;1409931;91;21453;-84
2022/01/16 09:33:00;;;;;;;78.72;35.25;;;;;;;-2.76;83.91;101578.72;1384600;91;21464;-83
2022/01/16 09:35:29;;;;;;;72.17;34.43;;;;;;;-2.75;83.99;101586.89;1406038;91;22360;-84
2022/01/16 09:37:58;;;;;;;80.17;38.10;;;;;;;-2.81;83.77;101586.58;1404803;91;21576;-84
2022/01/16 09:40:25;;;;;;;74.97;36.68;;;;;;;-2.79;84.18;101583.52;1402332;90;21434;-84
2022/01/16 09:42:53;;;;;;;177.78;67.95;;;;;;;-2.78;84.20;101581.33;1407994;90;21510;-83
2022/01/16 09:45:29;;;;;;;74.90;36.53;;;;;;;-2.76;84.32;101585.20;1398394;90;21405;-86
2022/01/16 09:47:57;;;;;;;78.52;37.83;;;;;;;-2.76;84.15;101576.98;1403303;89;21435;-83
2022/01/16 09:50:26;;;;;;;81.95;37.20;;;;;;;-2.72;84.53;101582.48;1407647;90;21339;-83
2022/01/16 09:52:55;;;;;;;82.67;39.25;;;;;;;-2.63;84.79;101584.02;1379509;91;22376;-83
2022/01/16 09:55:23;;;;;;;103.42;41.37;;;;;;;-2.56;84.70;101584.71;1415311;89;22271;-83
2022/01/16 09:57:51;;;;;;;151.20;62.95;;;;;;;-2.58;84.51;101580.03;1416191;90;21390;-84
2022/01/16 10:00:21;;;;;;;85.95;37.03;;;;;;;-2.57;84.24;101576.09;1399148;90;22315;-83
2022/01/16 10:02:49;;;;;;;87.90;41.10;;;;;;;-2.63;84.43;101573.64;1395696;91;21436;-83
2022/01/16 10:05:34;;;;;;;92.78;42.35;;;;;;;-2.57;84.58;101570.06;1385770;90;22207;-83
2022/01/16 10:08:13;;;;;;;65.52;32.78;;;;;;;-2.58;84.72;101568.37;1397193;89;21626;-83
2022/01/16 10:10:45;;;;;;;72.50;31.68;;;;;;;-2.58;84.50;101559.30;1405834;90;21597;-82
2022/01/16 10:13:41;;;;;;;78.78;39.80;;;;;;;-2.59;84.07;101555.86;1397031;91;21629;-83
2022/01/16 10:16:03;;;;;;;72.97;34.03;;;;;;;-2.50;84.83;101556.08;1377363;91;21609;-81
2022/01/16 10:18:38;;;;;;;77.40;36.03;;;;;;;-2.46;84.70;101552.97;1412916;89;21489;-79
2022/01/16 10:21:07;;;;;;;69.85;32.80;;;;;;;-2.49;84.53;101543.52;1412772;89;21515;-80
2022/01/16 10:23:44;;;;;;;67.08;30.97;;;;;;;-2.52;84.67;101539.70;1426069;89;22453;-80
2022/01/16 10:26:20;;;;;;;66.55;31.77;;;;;;;-2.46;85.23;101542.14;1422977;89;21478;-80
2022/01/16 10:28:49;;;;;;;72.55;33.10;;;;;;;-2.47;84.78;101533.09;1408440;90;21428;-81
2022/01/16 10:31:23;;;;;;;88.92;39.18;;;;;;;-2.44;84.71;101529.16;1414249;89;21545;-81
2022/01/16 10:33:51;;;;;;;74.00;33.35;;;;;;;-2.46;84.92;101517.52;1412354;89;21360;-80
2022/01/16 10:36:38;;;;;;;69.62;32.60;;;;;;;-2.41;84.96;101519.55;1378361;89;22300;-80
2022/01/16 10:39:09;;;;;;;82.37;36.35;;;;;;;-2.36;84.86;101511.64;1392918;89;22383;-80
2022/01/16 10:41:36;;;;;;;65.37;30.97;;;;;;;-2.34;84.62;101500.34;1406732;90;21316;-79
2022/01/16 10:44:04;;;;;;;77.70;34.05;;;;;;;-2.39;84.55;101498.30;1390731;89;21345;-80
2022/01/16 10:46:31;;;;;;;99.13;42.50;;;;;;;-2.38;84.66;101488.36;1392271;91;21350;-79
2022/01/16 10:49:17;;;;;;;78.15;36.42;;;;;;;-2.36;84.88;101481.41;1472067;89;21324;-79
2022/01/16 10:52:18;;;;;;;84.77;38.70;;;;;;;-2.29;84.89;101490.72;1396959;91;21377;-80
2022/01/16 10:54:45;;;;;;;80.30;35.92;;;;;;;-2.32;84.60;101479.12;1373299;90;21354;-80
2022/01/16 10:57:26;;;;;;;78.02;34.98;;;;;;;-2.37;84.93;101475.80;1421240;89;22545;-80
2022/01/16 11:00:17;;;;;;;75.83;36.63;;;;;;;-2.33;84.77;101472.25;1391279;90;21369;-81
2022/01/16 11:02:46;;;;;;;;;;;;;;;-2.35;84.16;101467.53;1398454;89;21545;-80
2022/01/16 11:05:18;;;;;;;76.70;34.25;;;;;;;-2.43;84.23;101459.10;1414705;89;20356;-80
2022/01/16 11:07:47;;;;;;;72.90;32.45;;;;;;;-2.38;84.74;101455.95;1441957;89;21368;-79
2022/01/16 11:10:29;;;;;;;76.62;34.35;;;;;;;-2.36;84.85;101451.59;1459683;89;21359;-80
2022/01/16 11:13:00;;;;;;;79.27;35.95;;;;;;;-2.41;84.59;101446.96;1457797;89;22506;-80
2022/01/16 11:15:28;;;;;;;72.37;32.00;;;;;;;-2.46;83.88;101442.78;1459798;89;21486;-80
2022/01/16 11:17:55;;;;;;;77.45;37.08;;;;;;;-2.45;84.43;101440.13;1433089;89;21390;-79
2022/01/16 11:20:28;;;;;;;86.30;36.50;;;;;;;-2.41;84.62;101436.59;1424930;90;21418;-77
2022/01/16 11:25:36;;;;;;;83.95;37.98;;;;;;;-2.34;84.77;101431.62;1409890;89;21339;-79
2022/01/16 11:28:12;;;;;;;74.10;35.78;;;;;;;-2.35;84.51;101424.75;1419196;89;21450;-78
2022/01/16 11:30:50;;;;;;;90.35;40.48;;;;;;;-2.33;84.39;101424.28;1429195;89;21617;-80
2022/01/16 11:33:19;;;;;;;96.63;43.68;;;;;;;-2.44;84.79;101421.11;1421278;89;21530;-79
2022/01/16 11:35:56;;;;;;;95.00;42.00;;;;;;;-2.38;85.08;101413.17;1398725;89;21484;-80
2022/01/16 11:38:31;;;;;;;84.72;37.23;;;;;;;-2.30;85.17;101412.97;1430118;89;21471;-80
2022/01/16 11:41:16;;;;;;;87.08;39.95;;;;;;;-2.24;84.93;101414.52;1420875;91;21641;-80
2022/01/16 11:43:49;;;;;;;92.05;40.03;;;;;;;-2.25;84.47;101411.53;1391539;91;21494;-80
2022/01/16 11:46:30;;;;;;;85.67;37.88;;;;;;;-2.24;84.40;101411.51;1405727;92;21598;-79
2022/01/16 11:49:05;;;;;;;82.22;36.40;;;;;;;-2.19;84.64;101408.77;1401372;90;21699;-79
2022/01/16 11:51:40;;;;;;;96.30;42.10;;;;;;;-2.22;84.85;101404.97;1426700;90;21479;-80
2022/01/16 11:54:24;;;;;;;88.33;38.35;;;;;;;-2.12;85.02;101416.80;1408935;91;21465;-80
2022/01/16 11:56:57;;;;;;;87.97;39.98;;;;;;;-2.06;84.83;101408.84;1398517;91;21449;-80
2022/01/16 11:59:38;;;;;;;88.25;38.40;;;;;;;-1.96;85.09;101407.67;1415789;91;21794;-80
2022/01/16 12:02:14;;;;;;;68.80;32.17;;;;;;;-1.92;84.53;101405.86;1417443;91;21538;-80
2022/01/16 12:04:56;;;;;;;91.53;42.62;;;;;;;-1.87;84.74;101400.95;1412297;91;21479;-80